Time,TemperatureF,DewpointF,PressureIn,WindDirection,WindDirectionDegrees,WindSpeedMPH,WindSpeedGustMPH,Humidity,HourlyPrecipIn,Conditions,Clouds,dailyrainin,SoftwareType,DateUTC
2013-03-08 00:02:00,29.0,27.2,30.10,NW,305,0.0,0.0,93,0.00,,---,0.00,VWS V13.00,2013-03-08 08:02:00,
2013-03-08 00:07:00,29.0,27.2,30.10,NW,305,0.0,0.0,93,0.00,,---,0.00,VWS V13.00,2013-03-08 08:07:00,
2013-03-08 00:12:00,29.0,27.2,30.10,NW,305,0.0,1.0,93,0.00,,---,0.00,VWS V13.00,2013-03-08 08:12:00,
2013-03-08 00:17:00,28.9,27.1,30.09,NW,305,0.0,1.0,93,0.00,,---,0.00,VWS V13.00,2013-03-08 08:17:00,
2013-03-08 00:22:00,28.8,27.0,30.09,NW,305,1.0,1.0,93,0.00,,---,0.00,VWS V13.00,2013-03-08 08:22:00,
2013-03-08 00:27:00,28.8,26.8,30.09,NW,305,0.0,1.0,92,0.00,,---,0.00,VWS V13.00,2013-03-08 08:27:00,
2013-03-08 00:32:00,28.8,26.8,30.09,NW,304,0.0,1.0,92,0.00,,---,0.00,VWS V13.00,2013-03-08 08:32:00,
2013-03-08 00:37:00,28.7,26.7,30.09,NW,305,1.0,2.0,92,0.00,,---,0.00,VWS V13.00,2013-03-08 08:37:00,
2013-03-08 00:42:00,28.6,26.6,30.09,NW,305,0.0,2.0,92,0.00,,---,0.00,VWS V13.00,2013-03-08 08:42:00,
2013-03-08 00:47:00,28.5,26.7,30.09,NW,305,1.0,2.0,93,0.00,,---,0.00,VWS V13.00,2013-03-08 08:47:00,
2013-03-08 00:52:00,28.4,26.6,30.09,NW,304,0.0,2.0,93,0.00,,---,0.00,VWS V13.00,2013-03-08 08:52:00,
2013-03-08 00:57:00,28.4,26.6,30.09,NW,305,2.0,2.0,93,0.00,,---,0.00,VWS V13.00,2013-03-08 08:57:00,
2013-03-08 01:02:00,28.4,26.6,30.10,NW,305,0.0,3.0,93,0.00,,---,0.00,VWS V13.00,2013-03-08 09:02:00,
2013-03-08 01:07:00,28.4,26.6,30.10,NW,304,0.0,3.0,93,0.00,,---,0.00,VWS V13.00,2013-03-08 09:07:00,
2013-03-08 01:12:00,28.3,26.5,30.10,NW,304,0.0,3.0,93,0.00,,---,0.00,VWS V13.00,2013-03-08 09:12:00,
2013-03-08 01:17:00,28.3,26.5,30.10,NW,305,0.0,3.0,93,0.00,,---,0.00,VWS V13.00,2013-03-08 09:17:00,
2013-03-08 01:22:00,28.4,26.6,30.10,NW,305,0.0,3.0,93,0.00,,---,0.00,VWS V13.00,2013-03-08 09:22:00,
2013-03-08 01:27:00,28.4,26.6,30.10,NW,305,0.0,3.0,93,0.00,,---,0.00,VWS V13.00,2013-03-08 09:27:00,
2013-03-08 01:32:00,28.4,26.6,30.10,NW,305,1.0,2.0,93,0.00,,---,0.00,VWS V13.00,2013-03-08 09:32:00,
2013-03-08 01:37:00,28.4,26.6,30.10,NW,305,2.0,2.0,93,0.00,,---,0.00,VWS V13.00,2013-03-08 09:37:00,
2013-03-08 01:42:00,28.5,26.7,30.09,NW,304,0.0,2.0,93,0.00,,---,0.00,VWS V13.00,2013-03-08 09:42:00,
2013-03-08 01:47:00,28.6,26.8,30.09,NW,305,0.0,2.0,93,0.00,,---,0.00,VWS V13.00,2013-03-08 09:47:00,
2013-03-08 01:52:00,28.6,26.8,30.09,NW,304,1.0,2.0,93,0.00,,---,0.00,VWS V13.00,2013-03-08 09:52:00,
2013-03-08 01:57:00,28.7,26.9,30.09,NW,305,0.0,2.0,93,0.00,,---,0.00,VWS V13.00,2013-03-08 09:57:00,
2013-03-08 02:02:00,28.7,26.9,30.09,NW,304,0.0,1.0,93,0.00,,---,0.00,VWS V13.00,2013-03-08 10:02:00,
2013-03-08 02:07:00,28.8,27.0,30.09,NW,305,0.0,1.0,93,0.00,,---,0.00,VWS V13.00,2013-03-08 10:07:00,
2013-03-08 02:12:00,28.8,27.0,30.09,NW,305,1.0,2.0,93,0.00,,---,0.00,VWS V13.00,2013-03-08 10:12:00,
2013-03-08 02:17:00,28.9,27.4,30.09,NW,305,3.0,3.0,94,0.00,,---,0.00,VWS V13.00,2013-03-08 10:17:00,
2013-03-08 02:22:00,29.1,27.6,30.09,NW,304,1.0,3.0,94,0.00,,---,0.00,VWS V13.00,2013-03-08 10:22:00,
2013-03-08 02:27:00,29.2,27.7,30.09,NW,304,0.0,3.0,94,0.00,,---,0.00,VWS V13.00,2013-03-08 10:27:00,
2013-03-08 02:32:00,29.3,27.8,30.09,NW,305,0.0,0.0,94,0.00,,---,0.00,VWS V13.00,2013-03-08 10:32:00,
2013-03-08 02:37:00,29.4,27.9,30.09,NW,305,0.0,2.0,94,0.00,,---,0.00,VWS V13.00,2013-03-08 10:37:00,
2013-03-08 02:42:00,29.5,28.0,30.08,NW,305,0.0,2.0,94,0.00,,---,0.00,VWS V13.00,2013-03-08 10:42:00,
2013-03-08 02:47:00,29.5,28.0,30.08,NW,305,0.0,2.0,94,0.00,,---,0.00,VWS V13.00,2013-03-08 10:47:00,
2013-03-08 02:52:00,29.6,28.1,30.08,NW,305,0.0,3.0,94,0.00,,---,0.00,VWS V13.00,2013-03-08 10:52:00,
2013-03-08 02:57:00,29.7,28.2,30.08,NW,305,0.0,3.0,94,0.00,,---,0.00,VWS V13.00,2013-03-08 10:57:00,
2013-03-08 03:02:00,29.8,28.3,30.08,NW,305,3.0,4.0,94,0.00,,---,0.00,VWS V13.00,2013-03-08 11:02:00,
2013-03-08 03:07:00,29.8,28.3,30.08,NW,304,1.0,4.0,94,0.00,,---,0.00,VWS V13.00,2013-03-08 11:07:00,
2013-03-08 03:12:00,29.8,28.3,30.09,NW,305,1.0,4.0,94,0.00,,---,0.00,VWS V13.00,2013-03-08 11:12:00,
2013-03-08 03:17:00,29.8,28.3,30.09,NW,305,1.0,4.0,94,0.00,,---,0.00,VWS V13.00,2013-03-08 11:17:00,
2013-03-08 03:22:00,29.8,28.3,30.09,NW,304,0.0,4.0,94,0.00,,---,0.00,VWS V13.00,2013-03-08 11:22:00,
2013-03-08 03:27:00,29.8,28.3,30.09,NW,304,3.0,4.0,94,0.00,,---,0.00,VWS V13.00,2013-03-08 11:27:00,
2013-03-08 03:32:00,29.8,28.3,30.09,NW,305,0.0,2.0,94,0.00,,---,0.00,VWS V13.00,2013-03-08 11:32:00,
2013-03-08 03:37:00,29.8,28.3,30.08,NW,305,1.0,2.0,94,0.00,,---,0.00,VWS V13.00,2013-03-08 11:37:00,
2013-03-08 03:42:00,29.8,28.3,30.09,NW,305,1.0,2.0,94,0.00,,---,0.00,VWS V13.00,2013-03-08 11:42:00,
2013-03-08 03:47:00,29.8,28.3,30.09,NW,304,0.0,2.0,94,0.00,,---,0.00,VWS V13.00,2013-03-08 11:47:00,
2013-03-08 03:52:00,29.9,28.4,30.09,NW,305,0.0,2.0,94,0.00,,---,0.00,VWS V13.00,2013-03-08 11:52:00,
2013-03-08 03:57:00,29.9,28.4,30.08,NW,304,0.0,2.0,94,0.00,,---,0.00,VWS V13.00,2013-03-08 11:57:00,
2013-03-08 04:02:00,29.9,28.4,30.08,NW,304,0.0,1.0,94,0.00,,---,0.00,VWS V13.00,2013-03-08 12:02:00,
2013-03-08 04:07:00,29.9,28.4,30.08,NW,305,0.0,1.0,94,0.00,,---,0.00,VWS V13.00,2013-03-08 12:07:00,
2013-03-08 04:12:00,29.9,28.4,30.08,NW,305,1.0,2.0,94,0.00,,---,0.00,VWS V13.00,2013-03-08 12:12:00,
2013-03-08 04:17:00,30.0,28.5,30.08,NW,304,0.0,3.0,94,0.00,,---,0.00,VWS V13.00,2013-03-08 12:17:00,
2013-03-08 04:22:00,30.0,28.5,30.08,NW,304,0.0,3.0,94,0.00,,---,0.00,VWS V13.00,2013-03-08 12:22:00,
2013-03-08 04:27:00,30.0,28.5,30.08,NW,305,1.0,3.0,94,0.00,,---,0.00,VWS V13.00,2013-03-08 12:27:00,
2013-03-08 04:32:00,30.0,28.5,30.08,NNW,329,0.0,3.0,94,0.00,,---,0.00,VWS V13.00,2013-03-08 12:32:00,
2013-03-08 04:37:00,29.9,28.4,30.08,NNW,329,2.0,3.0,94,0.00,,---,0.00,VWS V13.00,2013-03-08 12:37:00,
2013-03-08 04:42:00,29.9,28.4,30.08,NNW,329,1.0,3.0,94,0.00,,---,0.00,VWS V13.00,2013-03-08 12:42:00,
2013-03-08 04:47:00,29.9,28.4,30.08,NNW,329,0.0,3.0,94,0.00,,---,0.00,VWS V13.00,2013-03-08 12:47:00,
2013-03-08 04:52:00,29.9,28.4,30.08,NNW,329,1.0,3.0,94,0.00,,---,0.00,VWS V13.00,2013-03-08 12:52:00,
2013-03-08 04:57:00,29.9,28.4,30.08,NNW,329,0.0,3.0,94,0.00,,---,0.00,VWS V13.00,2013-03-08 12:57:00,
2013-03-08 05:02:00,29.9,28.4,30.09,NNW,329,0.0,2.0,94,0.00,,---,0.00,VWS V13.00,2013-03-08 13:02:00,
2013-03-08 05:07:00,29.8,28.3,30.09,NNW,329,0.0,2.0,94,0.00,,---,0.00,VWS V13.00,2013-03-08 13:07:00,
2013-03-08 05:12:00,29.9,28.4,30.09,NNW,329,0.0,2.0,94,0.00,,---,0.00,VWS V13.00,2013-03-08 13:12:00,
2013-03-08 05:17:00,29.9,28.4,30.09,NNW,329,0.0,2.0,94,0.00,,---,0.00,VWS V13.00,2013-03-08 13:17:00,
2013-03-08 05:22:00,29.9,28.4,30.09,NNW,329,0.0,2.0,94,0.00,,---,0.00,VWS V13.00,2013-03-08 13:22:00,
2013-03-08 05:27:00,29.9,28.4,30.09,NNW,329,0.0,2.0,94,0.00,,---,0.00,VWS V13.00,2013-03-08 13:27:00,
2013-03-08 05:32:00,29.9,28.4,30.09,NNW,329,1.0,1.0,94,0.00,,---,0.00,VWS V13.00,2013-03-08 13:32:00,
2013-03-08 05:37:00,29.9,28.4,30.09,NNW,329,0.0,1.0,94,0.00,,---,0.00,VWS V13.00,2013-03-08 13:37:00,
2013-03-08 05:42:00,29.8,28.3,30.09,NNW,329,1.0,3.0,94,0.00,,---,0.00,VWS V13.00,2013-03-08 13:42:00,
2013-03-08 05:47:00,29.8,28.3,30.09,NNW,329,0.0,3.0,94,0.00,,---,0.00,VWS V13.00,2013-03-08 13:47:00,
2013-03-08 05:52:00,29.8,28.3,30.09,NNW,329,0.0,3.0,94,0.00,,---,0.00,VWS V13.00,2013-03-08 13:52:00,
2013-03-08 05:57:00,29.8,28.3,30.09,NNW,329,0.0,3.0,94,0.00,,---,0.00,VWS V13.00,2013-03-08 13:57:00,
2013-03-08 06:02:00,29.8,28.3,30.09,NNW,329,0.0,0.0,94,0.00,,---,0.00,VWS V13.00,2013-03-08 14:02:00,
2013-03-08 06:07:00,29.8,28.3,30.09,NNW,329,0.0,0.0,94,0.00,,---,0.00,VWS V13.00,2013-03-08 14:07:00,
2013-03-08 06:12:00,29.8,28.3,30.09,NNW,329,0.0,0.0,94,0.00,,---,0.00,VWS V13.00,2013-03-08 14:12:00,
2013-03-08 06:17:00,29.8,28.3,30.09,NNW,329,0.0,1.0,94,0.00,,---,0.00,VWS V13.00,2013-03-08 14:17:00,
2013-03-08 06:22:00,29.8,28.3,30.09,NNW,329,0.0,1.0,94,0.00,,---,0.00,VWS V13.00,2013-03-08 14:22:00,
2013-03-08 06:27:00,29.8,28.3,30.09,NNW,329,1.0,1.0,94,0.00,,---,0.00,VWS V13.00,2013-03-08 14:27:00,
2013-03-08 06:32:00,29.8,28.3,30.09,NNW,329,0.0,0.0,94,0.00,,---,0.00,VWS V13.00,2013-03-08 14:32:00,
2013-03-08 06:37:00,29.8,28.3,30.09,NNW,329,0.0,1.0,94,0.00,,---,0.00,VWS V13.00,2013-03-08 14:37:00,
2013-03-08 06:42:00,29.8,28.3,30.10,NNW,329,0.0,1.0,94,0.00,,---,0.00,VWS V13.00,2013-03-08 14:42:00,
2013-03-08 06:47:00,29.8,28.3,30.10,NNW,329,0.0,1.0,94,0.00,,---,0.00,VWS V13.00,2013-03-08 14:47:00,
2013-03-08 06:52:00,29.7,28.2,30.10,NNW,329,0.0,1.0,94,0.00,,---,0.00,VWS V13.00,2013-03-08 14:52:00,
2013-03-08 06:57:00,29.6,28.1,30.09,NNW,329,1.0,2.0,94,0.00,,---,0.00,VWS V13.00,2013-03-08 14:57:00,
2013-03-08 07:02:00,29.5,28.0,30.10,NNW,329,0.0,1.0,94,0.00,,---,0.00,VWS V13.00,2013-03-08 15:02:00,
2013-03-08 07:07:00,29.5,28.0,30.10,NNW,329,0.0,1.0,94,0.00,,---,0.00,VWS V13.00,2013-03-08 15:07:00,
2013-03-08 07:12:00,29.4,27.9,30.10,NNW,329,0.0,1.0,94,0.00,,---,0.00,VWS V13.00,2013-03-08 15:12:00,
2013-03-08 07:17:00,29.4,27.9,30.10,NNW,329,2.0,3.0,94,0.00,,---,0.00,VWS V13.00,2013-03-08 15:17:00,
2013-03-08 07:22:00,29.4,27.9,30.10,NNW,329,1.0,3.0,94,0.00,,---,0.00,VWS V13.00,2013-03-08 15:22:00,
2013-03-08 07:27:00,29.4,27.9,30.11,NNW,329,0.0,3.0,94,0.00,,---,0.00,VWS V13.00,2013-03-08 15:27:00,
2013-03-08 07:32:00,29.3,27.8,30.11,NNW,329,0.0,2.0,94,0.00,,---,0.00,VWS V13.00,2013-03-08 15:32:00,
2013-03-08 07:37:00,29.3,27.8,30.11,NNW,329,1.0,2.0,94,0.00,,---,0.00,VWS V13.00,2013-03-08 15:37:00,
2013-03-08 07:42:00,29.4,27.9,30.11,NNW,329,0.0,2.0,94,0.00,,---,0.00,VWS V13.00,2013-03-08 15:42:00,
2013-03-08 07:47:00,29.4,27.9,30.11,NNW,329,0.0,2.0,94,0.00,,---,0.00,VWS V13.00,2013-03-08 15:47:00,
2013-03-08 07:52:00,29.5,28.2,30.11,NNW,329,1.0,2.0,95,0.00,,---,0.00,VWS V13.00,2013-03-08 15:52:00,
2013-03-08 07:57:00,29.5,28.2,30.11,NNW,329,1.0,2.0,95,0.00,,---,0.00,VWS V13.00,2013-03-08 15:57:00,
2013-03-08 08:02:00,29.5,28.2,30.11,NNW,329,0.0,0.0,95,0.00,,---,0.00,VWS V13.00,2013-03-08 16:02:00,
2013-03-08 08:07:00,29.6,28.1,30.11,NNW,329,0.0,3.0,94,0.00,,---,0.00,VWS V13.00,2013-03-08 16:07:00,
2013-03-08 08:12:00,29.6,28.4,30.11,NNW,329,0.0,3.0,95,0.00,,---,0.00,VWS V13.00,2013-03-08 16:12:00,
2013-03-08 08:17:00,29.7,28.5,30.11,NNW,329,0.0,3.0,95,0.00,,---,0.00,VWS V13.00,2013-03-08 16:17:00,
2013-03-08 08:22:00,29.7,28.5,30.11,NNW,329,1.0,3.0,95,0.00,,---,0.00,VWS V13.00,2013-03-08 16:22:00,
2013-03-08 08:27:00,29.8,28.5,30.11,NNW,329,0.0,3.0,95,0.00,,---,0.00,VWS V13.00,2013-03-08 16:27:00,
2013-03-08 08:32:00,29.9,28.6,30.11,NNW,329,0.0,0.0,95,0.00,,---,0.00,VWS V13.00,2013-03-08 16:32:00,
2013-03-08 08:37:00,30.0,28.7,30.11,NNW,329,0.0,1.0,95,0.00,,---,0.00,VWS V13.00,2013-03-08 16:37:00,
2013-03-08 08:42:00,30.1,28.8,30.12,NNW,329,0.0,2.0,95,0.00,,---,0.00,VWS V13.00,2013-03-08 16:42:00,
2013-03-08 08:47:00,30.2,28.9,30.12,NNW,329,0.0,2.0,95,0.00,,---,0.00,VWS V13.00,2013-03-08 16:47:00,
2013-03-08 08:52:00,30.3,29.0,30.12,NNW,329,1.0,2.0,95,0.00,,---,0.00,VWS V13.00,2013-03-08 16:52:00,
2013-03-08 08:57:00,30.4,29.1,30.12,NNW,329,0.0,2.0,95,0.00,,---,0.00,VWS V13.00,2013-03-08 16:57:00,
2013-03-08 09:02:00,30.5,29.2,30.12,NNW,329,0.0,1.0,95,0.00,,---,0.00,VWS V13.00,2013-03-08 17:02:00,
2013-03-08 09:07:00,30.6,29.3,30.12,NNW,329,0.0,2.0,95,0.00,,---,0.00,VWS V13.00,2013-03-08 17:07:00,
2013-03-08 09:12:00,30.6,29.3,30.12,NNW,329,0.0,2.0,95,0.00,,---,0.00,VWS V13.00,2013-03-08 17:12:00,
2013-03-08 09:17:00,30.7,29.4,30.12,NNW,329,1.0,2.0,95,0.00,,---,0.00,VWS V13.00,2013-03-08 17:17:00,
2013-03-08 09:22:00,30.8,29.5,30.12,NNW,329,0.0,2.0,95,0.01,,---,0.01,VWS V13.00,2013-03-08 17:22:00,
2013-03-08 09:27:00,30.8,29.5,30.12,NNW,329,0.0,2.0,95,0.01,,---,0.01,VWS V13.00,2013-03-08 17:27:00,
2013-03-08 09:32:00,31.0,29.7,30.12,NNW,329,0.0,0.0,95,0.01,,---,0.01,VWS V13.00,2013-03-08 17:32:00,
2013-03-08 09:37:00,31.1,29.8,30.12,NNW,329,0.0,0.0,95,0.01,,---,0.01,VWS V13.00,2013-03-08 17:37:00,
2013-03-08 09:42:00,31.2,29.9,30.12,NNW,329,0.0,2.0,95,0.01,,---,0.01,VWS V13.00,2013-03-08 17:42:00,
2013-03-08 09:47:00,31.3,30.0,30.13,NNW,329,0.0,2.0,95,0.01,,---,0.01,VWS V13.00,2013-03-08 17:47:00,
2013-03-08 09:52:00,31.4,30.1,30.13,NNW,329,0.0,2.0,95,0.01,,---,0.01,VWS V13.00,2013-03-08 17:52:00,
2013-03-08 09:57:00,31.4,30.1,30.13,NNW,329,0.0,2.0,95,0.01,,---,0.01,VWS V13.00,2013-03-08 17:57:00,
2013-03-08 10:02:00,31.5,30.2,30.13,NNW,329,0.0,0.0,95,0.01,,---,0.01,VWS V13.00,2013-03-08 18:02:00,
2013-03-08 10:07:00,31.7,30.4,30.13,NNW,329,0.0,0.0,95,0.01,,---,0.01,VWS V13.00,2013-03-08 18:07:00,
2013-03-08 10:12:00,31.7,30.4,30.13,NNW,329,0.0,1.0,95,0.01,,---,0.01,VWS V13.00,2013-03-08 18:12:00,
2013-03-08 10:17:00,31.9,30.6,30.13,NNW,329,0.0,1.0,95,0.01,,---,0.01,VWS V13.00,2013-03-08 18:17:00,
2013-03-08 10:22:00,32.0,30.7,30.13,NNW,329,0.0,1.0,95,0.01,,---,0.01,VWS V13.00,2013-03-08 18:22:00,
2013-03-08 10:27:00,32.3,31.0,30.13,NNW,329,0.0,1.0,95,0.01,,---,0.01,VWS V13.00,2013-03-08 18:27:00,
2013-03-08 10:32:00,32.4,31.1,30.13,NNW,329,0.0,1.0,95,0.00,,---,0.01,VWS V13.00,2013-03-08 18:32:00,
2013-03-08 10:37:00,32.6,31.3,30.12,NNW,329,0.0,1.0,95,0.00,,---,0.01,VWS V13.00,2013-03-08 18:37:00,
2013-03-08 10:42:00,32.6,31.3,30.12,NNW,329,0.0,2.0,95,0.00,,---,0.01,VWS V13.00,2013-03-08 18:42:00,
2013-03-08 10:47:00,32.6,31.3,30.13,NNW,329,0.0,2.0,95,0.00,,---,0.01,VWS V13.00,2013-03-08 18:47:00,
2013-03-08 10:52:00,32.8,31.5,30.12,NNW,329,0.0,2.0,95,0.00,,---,0.01,VWS V13.00,2013-03-08 18:52:00,
2013-03-08 10:57:00,32.9,31.6,30.12,NNW,329,0.0,3.0,95,0.00,,---,0.01,VWS V13.00,2013-03-08 18:57:00,
2013-03-08 11:02:00,33.0,31.7,30.12,NNW,329,2.0,2.0,95,0.00,,---,0.01,VWS V13.00,2013-03-08 19:02:00,
2013-03-08 11:07:00,33.0,31.7,30.12,NNW,329,0.0,2.0,95,0.00,,---,0.01,VWS V13.00,2013-03-08 19:07:00,
2013-03-08 11:12:00,33.1,31.8,30.12,NNW,329,2.0,3.0,95,0.00,,---,0.01,VWS V13.00,2013-03-08 19:12:00,
2013-03-08 11:17:00,33.1,31.8,30.12,NNW,329,0.0,4.0,95,0.00,,---,0.01,VWS V13.00,2013-03-08 19:17:00,
2013-03-08 11:22:00,33.2,31.9,30.12,NNW,329,1.0,4.0,95,0.00,,---,0.01,VWS V13.00,2013-03-08 19:22:00,
2013-03-08 11:27:00,33.3,32.0,30.12,NNW,329,0.0,4.0,95,0.00,,---,0.01,VWS V13.00,2013-03-08 19:27:00,
2013-03-08 11:32:00,33.3,32.0,30.12,NNW,329,1.0,2.0,95,0.00,,---,0.01,VWS V13.00,2013-03-08 19:32:00,
2013-03-08 11:37:00,33.4,32.1,30.12,NNW,329,0.0,2.0,95,0.00,,---,0.01,VWS V13.00,2013-03-08 19:37:00,
2013-03-08 11:42:00,33.6,32.3,30.12,NNW,329,0.0,2.0,95,0.00,,---,0.01,VWS V13.00,2013-03-08 19:42:00,
2013-03-08 11:47:00,33.7,32.4,30.12,NNW,329,0.0,4.0,95,0.00,,---,0.01,VWS V13.00,2013-03-08 19:47:00,
2013-03-08 11:52:00,34.0,32.7,30.12,NNW,329,0.0,4.0,95,0.00,,---,0.01,VWS V13.00,2013-03-08 19:52:00,
2013-03-08 11:57:00,34.2,32.9,30.12,NNW,329,0.0,4.0,95,0.00,,---,0.01,VWS V13.00,2013-03-08 19:57:00,
2013-03-08 12:02:00,34.2,32.9,30.12,NNW,329,3.0,3.0,95,0.00,,---,0.01,VWS V13.00,2013-03-08 20:02:00,
2013-03-08 12:07:00,34.3,33.0,30.12,WNW,290,0.0,4.0,95,0.00,,---,0.01,VWS V13.00,2013-03-08 20:07:00,
2013-03-08 12:12:00,34.3,33.0,30.11,WNW,290,0.0,4.0,95,0.00,,---,0.01,VWS V13.00,2013-03-08 20:12:00,
2013-03-08 12:17:00,34.4,33.1,30.11,WNW,290,1.0,4.0,95,0.00,,---,0.01,VWS V13.00,2013-03-08 20:17:00,
2013-03-08 12:22:00,34.4,33.1,30.11,WNW,290,1.0,4.0,95,0.00,,---,0.01,VWS V13.00,2013-03-08 20:22:00,
2013-03-08 12:27:00,34.5,33.2,30.11,SSW,205,0.0,4.0,95,0.00,,---,0.01,VWS V13.00,2013-03-08 20:27:00,
2013-03-08 12:32:00,34.7,33.4,30.11,SSW,212,1.0,2.0,95,0.00,,---,0.01,VWS V13.00,2013-03-08 20:32:00,
2013-03-08 12:37:00,34.5,33.2,30.11,NE,49,0.0,4.0,95,0.00,,---,0.01,VWS V13.00,2013-03-08 20:37:00,
2013-03-08 12:42:00,34.4,33.1,30.11,NE,48,0.0,4.0,95,0.00,,---,0.01,VWS V13.00,2013-03-08 20:42:00,
2013-03-08 12:47:00,34.7,33.4,30.11,NE,49,0.0,4.0,95,0.00,,---,0.01,VWS V13.00,2013-03-08 20:47:00,
2013-03-08 12:52:00,34.8,33.5,30.11,NE,49,2.0,4.0,95,0.00,,---,0.01,VWS V13.00,2013-03-08 20:52:00,
2013-03-08 12:57:00,35.1,33.8,30.11,NE,49,0.0,4.0,95,0.00,,---,0.01,VWS V13.00,2013-03-08 20:57:00,
2013-03-08 13:02:00,35.2,33.9,30.10,NE,48,1.0,2.0,95,0.00,,---,0.01,VWS V13.00,2013-03-08 21:02:00,
2013-03-08 13:07:00,35.1,33.8,30.10,NE,48,0.0,3.0,95,0.00,,---,0.01,VWS V13.00,2013-03-08 21:07:00,
2013-03-08 13:12:00,35.0,33.7,30.10,NE,48,0.0,3.0,95,0.00,,---,0.01,VWS V13.00,2013-03-08 21:12:00,
2013-03-08 13:17:00,35.1,33.8,30.10,NE,49,0.0,3.0,95,0.00,,---,0.01,VWS V13.00,2013-03-08 21:17:00,
2013-03-08 13:22:00,35.2,33.9,30.10,NE,48,1.0,3.0,95,0.00,,---,0.01,VWS V13.00,2013-03-08 21:22:00,
2013-03-08 13:27:00,35.3,34.0,30.10,NE,48,0.0,3.0,95,0.00,,---,0.01,VWS V13.00,2013-03-08 21:27:00,
2013-03-08 13:32:00,35.3,34.0,30.10,NE,49,1.0,2.0,95,0.00,,---,0.01,VWS V13.00,2013-03-08 21:32:00,
2013-03-08 13:37:00,35.3,34.0,30.10,NW,311,1.0,3.0,95,0.00,,---,0.01,VWS V13.00,2013-03-08 21:37:00,
2013-03-08 13:42:00,35.4,34.1,30.10,NW,311,2.0,3.0,95,0.00,,---,0.01,VWS V13.00,2013-03-08 21:42:00,
2013-03-08 13:47:00,35.3,34.0,30.10,NW,313,1.0,4.0,95,0.00,,---,0.01,VWS V13.00,2013-03-08 21:47:00,
2013-03-08 13:52:00,35.4,34.1,30.10,WNW,283,2.0,4.0,95,0.00,,---,0.01,VWS V13.00,2013-03-08 21:52:00,
2013-03-08 13:57:00,35.6,34.3,30.10,WNW,284,0.0,4.0,95,0.00,,---,0.01,VWS V13.00,2013-03-08 21:57:00,
2013-03-08 14:02:00,35.8,34.5,30.09,NNW,347,2.0,3.0,95,0.00,,---,0.01,VWS V13.00,2013-03-08 22:02:00,
2013-03-08 14:07:00,35.9,34.6,30.09,North,5,1.0,4.0,95,0.00,,---,0.01,VWS V13.00,2013-03-08 22:07:00,
2013-03-08 14:12:00,36.0,34.7,30.09,North,5,3.0,4.0,95,0.00,,---,0.01,VWS V13.00,2013-03-08 22:12:00,
2013-03-08 14:17:00,36.1,34.8,30.09,WNW,300,3.0,4.0,95,0.00,,---,0.01,VWS V13.00,2013-03-08 22:17:00,
2013-03-08 14:22:00,36.3,35.0,30.09,West,273,0.0,4.0,95,0.00,,---,0.01,VWS V13.00,2013-03-08 22:22:00,
2013-03-08 14:27:00,36.6,35.3,30.09,West,273,0.0,4.0,95,0.00,,---,0.01,VWS V13.00,2013-03-08 22:27:00,
2013-03-08 14:32:00,36.6,35.3,30.09,WSW,257,1.0,2.0,95,0.00,,---,0.01,VWS V13.00,2013-03-08 22:32:00,
2013-03-08 14:37:00,37.4,36.4,30.09,WSW,257,1.0,3.0,96,0.00,,---,0.01,VWS V13.00,2013-03-08 22:37:00,
2013-03-08 14:42:00,38.0,36.7,30.08,WSW,257,0.0,3.0,95,0.00,,---,0.01,VWS V13.00,2013-03-08 22:42:00,
2013-03-08 14:47:00,38.3,37.0,30.08,NNW,344,1.0,4.0,95,0.00,,---,0.01,VWS V13.00,2013-03-08 22:47:00,
2013-03-08 14:52:00,38.4,37.1,30.08,NNW,344,0.0,4.0,95,0.00,,---,0.01,VWS V13.00,2013-03-08 22:52:00,
2013-03-08 14:57:00,38.6,37.0,30.08,NNW,344,1.0,4.0,94,0.00,,---,0.01,VWS V13.00,2013-03-08 22:57:00,
2013-03-08 15:02:00,38.6,37.0,30.08,NNW,344,0.0,2.0,94,0.00,,---,0.01,VWS V13.00,2013-03-08 23:02:00,
2013-03-08 15:07:00,38.6,36.8,30.08,NNW,344,1.0,2.0,93,0.00,,---,0.01,VWS V13.00,2013-03-08 23:07:00,
2013-03-08 15:12:00,38.8,37.0,30.08,NNW,344,0.0,2.0,93,0.00,,---,0.01,VWS V13.00,2013-03-08 23:12:00,
2013-03-08 15:17:00,38.7,36.6,30.08,NNW,344,0.0,2.0,92,0.00,,---,0.01,VWS V13.00,2013-03-08 23:17:00,
2013-03-08 15:22:00,38.7,36.6,30.08,NNW,344,0.0,2.0,92,0.00,,---,0.01,VWS V13.00,2013-03-08 23:22:00,
2013-03-08 15:27:00,38.7,36.3,30.08,SE,133,1.0,3.0,91,0.00,,---,0.01,VWS V13.00,2013-03-08 23:27:00,
2013-03-08 15:32:00,38.6,36.2,30.08,SE,133,0.0,0.0,91,0.00,,---,0.01,VWS V13.00,2013-03-08 23:32:00,
2013-03-08 15:37:00,38.7,36.0,30.08,SE,133,1.0,4.0,90,0.00,,---,0.01,VWS V13.00,2013-03-08 23:37:00,
2013-03-08 15:42:00,38.8,36.1,30.08,SE,133,0.0,4.0,90,0.00,,---,0.01,VWS V13.00,2013-03-08 23:42:00,
2013-03-08 15:47:00,38.8,35.8,30.08,SE,133,1.0,4.0,89,0.00,,---,0.01,VWS V13.00,2013-03-08 23:47:00,
2013-03-08 15:52:00,38.9,35.9,30.08,SE,133,0.0,4.0,89,0.00,,---,0.01,VWS V13.00,2013-03-08 23:52:00,
2013-03-08 15:57:00,38.9,35.9,30.08,SE,133,0.0,4.0,89,0.00,,---,0.01,VWS V13.00,2013-03-08 23:57:00,
2013-03-08 16:02:00,38.9,35.7,30.08,SE,130,3.0,3.0,88,0.00,,---,0.01,VWS V13.00,2013-03-09 00:02:00,
2013-03-08 16:06:00,38.8,35.6,30.08,SE,125,1.0,4.0,88,0.00,,---,0.01,VWS V13.00,2013-03-09 00:06:00,
2013-03-08 16:11:00,38.8,35.6,30.08,SE,125,0.0,4.0,88,0.00,,---,0.01,VWS V13.00,2013-03-09 00:11:00,
2013-03-08 16:16:00,38.8,35.6,30.08,SE,125,1.0,4.0,88,0.00,,---,0.01,VWS V13.00,2013-03-09 00:16:00,
2013-03-08 16:21:00,38.8,35.6,30.08,SE,126,0.0,4.0,88,0.00,,---,0.01,VWS V13.00,2013-03-09 00:21:00,
2013-03-08 16:26:00,38.8,35.6,30.08,SE,126,0.0,4.0,88,0.00,,---,0.01,VWS V13.00,2013-03-09 00:26:00,
2013-03-08 16:31:00,38.7,35.2,30.08,SE,125,0.0,1.0,87,0.00,,---,0.01,VWS V13.00,2013-03-09 00:31:00,
2013-03-08 16:36:00,38.7,35.2,30.08,SE,126,0.0,4.0,87,0.00,,---,0.01,VWS V13.00,2013-03-09 00:36:00,
2013-03-08 16:41:00,38.6,35.1,30.08,SE,126,3.0,4.0,87,0.00,,---,0.01,VWS V13.00,2013-03-09 00:41:00,
2013-03-08 16:46:00,38.6,35.1,30.08,SE,125,0.0,4.0,87,0.00,,---,0.01,VWS V13.00,2013-03-09 00:46:00,
2013-03-08 16:51:00,38.5,35.0,30.08,SE,126,0.0,4.0,87,0.00,,---,0.01,VWS V13.00,2013-03-09 00:51:00,
2013-03-08 16:56:00,38.5,35.0,30.08,SE,125,0.0,4.0,87,0.00,,---,0.01,VWS V13.00,2013-03-09 00:56:00,
2013-03-08 17:01:00,38.4,34.9,30.08,SE,126,0.0,0.0,87,0.00,,---,0.01,VWS V13.00,2013-03-09 01:01:00,
2013-03-08 17:06:00,38.5,35.3,30.08,SE,126,0.0,0.0,88,0.00,,---,0.01,VWS V13.00,2013-03-09 01:06:00,
2013-03-08 17:11:00,38.5,35.0,30.08,SE,125,0.0,0.0,87,0.00,,---,0.01,VWS V13.00,2013-03-09 01:11:00,
2013-03-08 17:16:00,38.5,35.0,30.08,SE,126,0.0,0.0,87,0.00,,---,0.01,VWS V13.00,2013-03-09 01:16:00,
2013-03-08 17:21:00,38.5,35.0,30.08,SE,126,0.0,0.0,87,0.00,,---,0.01,VWS V13.00,2013-03-09 01:21:00,
2013-03-08 17:26:00,38.5,35.0,30.08,SE,126,0.0,0.0,87,0.00,,---,0.01,VWS V13.00,2013-03-09 01:26:00,
2013-03-08 17:31:00,38.4,34.9,30.08,SE,126,0.0,0.0,87,0.00,,---,0.01,VWS V13.00,2013-03-09 01:31:00,
2013-03-08 17:36:00,38.3,34.5,30.08,SE,125,0.0,0.0,86,0.00,,---,0.01,VWS V13.00,2013-03-09 01:36:00,
2013-03-08 17:41:00,38.2,34.4,30.08,SE,126,0.0,0.0,86,0.00,,---,0.01,VWS V13.00,2013-03-09 01:41:00,
2013-03-08 17:46:00,38.0,34.2,30.08,SE,126,0.0,0.0,86,0.00,,---,0.01,VWS V13.00,2013-03-09 01:46:00,
2013-03-08 17:51:00,37.8,33.7,30.09,SE,126,0.0,0.0,85,0.00,,---,0.01,VWS V13.00,2013-03-09 01:51:00,
2013-03-08 17:56:00,37.6,33.8,30.09,SE,125,0.0,0.0,86,0.00,,---,0.01,VWS V13.00,2013-03-09 01:56:00,
2013-03-08 18:02:00,37.5,33.7,30.09,SE,126,0.0,0.0,86,0.00,,---,0.01,VWS V13.00,2013-03-09 02:02:00,
2013-03-08 18:07:00,37.2,33.4,30.09,SE,126,0.0,1.0,86,0.00,,---,0.01,VWS V13.00,2013-03-09 02:07:00,
2013-03-08 18:12:00,36.9,33.1,30.09,SE,126,1.0,1.0,86,0.00,,---,0.01,VWS V13.00,2013-03-09 02:12:00,
2013-03-08 18:17:00,36.6,32.8,30.10,SE,125,0.0,2.0,86,0.00,,---,0.01,VWS V13.00,2013-03-09 02:17:00,
2013-03-08 18:22:00,36.3,32.5,30.10,SE,126,0.0,2.0,86,0.00,,---,0.01,VWS V13.00,2013-03-09 02:22:00,
2013-03-08 18:27:00,36.0,32.2,30.10,SE,126,2.0,2.0,86,0.00,,---,0.01,VWS V13.00,2013-03-09 02:27:00,
2013-03-08 18:32:00,35.7,31.9,30.10,SE,125,1.0,2.0,86,0.00,,---,0.01,VWS V13.00,2013-03-09 02:32:00,
2013-03-08 18:37:00,35.3,31.8,30.10,SE,125,0.0,2.0,87,0.00,,---,0.01,VWS V13.00,2013-03-09 02:37:00,
2013-03-08 18:42:00,35.0,31.5,30.11,SE,126,2.0,2.0,87,0.00,,---,0.01,VWS V13.00,2013-03-09 02:42:00,
2013-03-08 18:47:00,34.6,31.1,30.11,SE,126,2.0,2.0,87,0.00,,---,0.01,VWS V13.00,2013-03-09 02:47:00,
2013-03-08 18:52:00,34.4,31.2,30.11,SE,126,0.0,2.0,88,0.00,,---,0.01,VWS V13.00,2013-03-09 02:52:00,
2013-03-08 18:57:00,34.2,31.0,30.12,SE,126,1.0,2.0,88,0.00,,---,0.01,VWS V13.00,2013-03-09 02:57:00,
2013-03-08 19:02:00,33.9,31.0,30.12,SE,126,0.0,0.0,89,0.00,,---,0.01,VWS V13.00,2013-03-09 03:02:00,
2013-03-08 19:07:00,33.7,30.8,30.12,SE,126,1.0,3.0,89,0.00,,---,0.01,VWS V13.00,2013-03-09 03:07:00,
2013-03-08 19:12:00,33.4,30.5,30.12,SE,126,1.0,3.0,89,0.00,,---,0.01,VWS V13.00,2013-03-09 03:12:00,
2013-03-08 19:17:00,33.2,30.3,30.13,SE,125,1.0,3.0,89,0.00,,---,0.01,VWS V13.00,2013-03-09 03:17:00,
2013-03-08 19:22:00,33.0,30.1,30.13,SE,126,0.0,3.0,89,0.00,,---,0.01,VWS V13.00,2013-03-09 03:22:00,
2013-03-08 19:27:00,32.6,29.7,30.14,SE,126,1.0,3.0,89,0.00,,---,0.01,VWS V13.00,2013-03-09 03:27:00,
2013-03-08 19:32:00,32.5,29.9,30.13,SE,126,2.0,2.0,90,0.00,,---,0.01,VWS V13.00,2013-03-09 03:32:00,
2013-03-08 19:37:00,32.3,29.7,30.14,SE,126,1.0,2.0,90,0.00,,---,0.01,VWS V13.00,2013-03-09 03:37:00,
2013-03-08 19:42:00,32.1,29.5,30.14,SE,126,1.0,2.0,90,0.00,,---,0.01,VWS V13.00,2013-03-09 03:42:00,
2013-03-08 19:47:00,32.1,29.5,30.14,SE,126,1.0,2.0,90,0.00,,---,0.01,VWS V13.00,2013-03-09 03:47:00,
2013-03-08 19:52:00,32.0,29.7,30.14,SE,125,1.0,2.0,91,0.00,,---,0.01,VWS V13.00,2013-03-09 03:52:00,
2013-03-08 19:57:00,31.9,29.6,30.14,SE,126,1.0,2.0,91,0.00,,---,0.01,VWS V13.00,2013-03-09 03:57:00,
2013-03-08 20:02:00,31.9,29.6,30.14,SE,126,2.0,3.0,91,0.00,,---,0.01,VWS V13.00,2013-03-09 04:02:00,
2013-03-08 20:07:00,31.9,29.6,30.14,SE,126,0.0,3.0,91,0.00,,---,0.01,VWS V13.00,2013-03-09 04:07:00,
2013-03-08 20:12:00,31.8,29.5,30.14,SE,125,1.0,3.0,91,0.00,,---,0.01,VWS V13.00,2013-03-09 04:12:00,
2013-03-08 20:17:00,31.9,29.6,30.14,SE,126,1.0,3.0,91,0.00,,---,0.01,VWS V13.00,2013-03-09 04:17:00,
2013-03-08 20:22:00,31.9,29.8,30.15,SE,126,1.0,3.0,92,0.00,,---,0.01,VWS V13.00,2013-03-09 04:22:00,
2013-03-08 20:27:00,31.9,29.8,30.15,SE,126,0.0,3.0,92,0.00,,---,0.01,VWS V13.00,2013-03-09 04:27:00,
2013-03-08 20:32:00,31.9,29.8,30.15,SE,126,0.0,1.0,92,0.00,,---,0.01,VWS V13.00,2013-03-09 04:32:00,
2013-03-08 20:37:00,31.9,29.8,30.15,SE,126,1.0,2.0,92,0.00,,---,0.01,VWS V13.00,2013-03-09 04:37:00,
2013-03-08 20:42:00,31.9,29.8,30.15,SE,125,0.0,3.0,92,0.00,,---,0.01,VWS V13.00,2013-03-09 04:42:00,
2013-03-08 20:47:00,31.8,29.8,30.14,SE,125,0.0,3.0,92,0.00,,---,0.01,VWS V13.00,2013-03-09 04:47:00,
2013-03-08 20:52:00,31.8,29.8,30.15,SE,126,0.0,3.0,92,0.00,,---,0.01,VWS V13.00,2013-03-09 04:52:00,
2013-03-08 20:57:00,31.8,29.8,30.15,SE,126,0.0,3.0,92,0.00,,---,0.01,VWS V13.00,2013-03-09 04:57:00,
2013-03-08 21:00:00,31.7,29.6,30.15,SE,125,0.0,0.0,92,0.00,,---,0.01,VWS V13.00,2013-03-09 05:00:00,
2013-03-08 21:05:00,31.6,29.5,30.15,SE,126,0.0,0.0,92,0.00,,---,0.01,VWS V13.00,2013-03-09 05:05:00,
2013-03-08 21:10:00,31.6,29.5,30.15,SE,126,0.0,0.0,92,0.00,,---,0.01,VWS V13.00,2013-03-09 05:10:00,
2013-03-08 21:15:00,31.5,29.5,30.15,SE,126,0.0,0.0,92,0.00,,---,0.01,VWS V13.00,2013-03-09 05:15:00,
2013-03-08 21:20:00,31.4,29.4,30.16,SE,125,0.0,2.0,92,0.00,,---,0.01,VWS V13.00,2013-03-09 05:20:00,
2013-03-08 21:25:00,31.3,29.2,30.16,SE,125,1.0,2.0,92,0.00,,---,0.01,VWS V13.00,2013-03-09 05:25:00,
2013-03-08 21:30:00,31.2,29.1,30.16,SE,126,0.0,0.0,92,0.00,,---,0.01,VWS V13.00,2013-03-09 05:30:00,
2013-03-08 21:35:00,31.1,29.0,30.16,SE,126,0.0,0.0,92,0.00,,---,0.01,VWS V13.00,2013-03-09 05:35:00,
2013-03-08 21:40:00,31.0,29.0,30.16,SE,126,1.0,2.0,92,0.00,,---,0.01,VWS V13.00,2013-03-09 05:40:00,
2013-03-08 21:45:00,30.9,28.9,30.16,SE,125,0.0,2.0,92,0.00,,---,0.01,VWS V13.00,2013-03-09 05:45:00,
2013-03-08 21:50:00,30.8,28.8,30.16,SE,126,0.0,2.0,92,0.00,,---,0.01,VWS V13.00,2013-03-09 05:50:00,
2013-03-08 21:55:00,30.8,28.8,30.16,West,268,1.0,3.0,92,0.00,,---,0.01,VWS V13.00,2013-03-09 05:55:00,
2013-03-08 22:00:00,30.8,29.0,30.16,West,268,1.0,2.0,93,0.00,,---,0.01,VWS V13.00,2013-03-09 06:00:00,
2013-03-08 22:05:00,30.8,29.0,30.15,West,268,0.0,2.0,93,0.00,,---,0.01,VWS V13.00,2013-03-09 06:05:00,
2013-03-08 22:10:00,30.9,29.1,30.16,West,268,0.0,3.0,93,0.00,,---,0.01,VWS V13.00,2013-03-09 06:10:00,
2013-03-08 22:15:00,30.9,29.1,30.16,West,268,0.0,3.0,93,0.00,,---,0.01,VWS V13.00,2013-03-09 06:15:00,
2013-03-08 22:20:00,30.9,29.1,30.16,West,268,0.0,3.0,93,0.00,,---,0.01,VWS V13.00,2013-03-09 06:20:00,
2013-03-08 22:25:00,30.9,29.1,30.16,West,268,0.0,3.0,93,0.00,,---,0.01,VWS V13.00,2013-03-09 06:25:00,
2013-03-08 22:30:00,31.0,29.2,30.16,West,268,0.0,1.0,93,0.00,,---,0.01,VWS V13.00,2013-03-09 06:30:00,
2013-03-08 22:35:00,31.1,29.3,30.17,West,268,1.0,4.0,93,0.00,,---,0.01,VWS V13.00,2013-03-09 06:35:00,
2013-03-08 22:40:00,31.1,29.3,30.16,West,268,1.0,4.0,93,0.00,,---,0.01,VWS V13.00,2013-03-09 06:40:00,
2013-03-08 22:45:00,31.1,29.3,30.17,WNW,296,0.0,4.0,93,0.00,,---,0.01,VWS V13.00,2013-03-09 06:45:00,
2013-03-08 22:50:00,31.2,29.4,30.17,WNW,295,0.0,4.0,93,0.00,,---,0.01,VWS V13.00,2013-03-09 06:50:00,
2013-03-08 22:55:00,31.2,29.4,30.17,WNW,296,1.0,4.0,93,0.00,,---,0.01,VWS V13.00,2013-03-09 06:55:00,
2013-03-08 23:00:00,31.2,29.4,30.17,WNW,296,0.0,1.0,93,0.00,,---,0.01,VWS V13.00,2013-03-09 07:00:00,
2013-03-08 23:05:00,31.2,29.4,30.17,WNW,296,0.0,1.0,93,0.00,,---,0.01,VWS V13.00,2013-03-09 07:05:00,
2013-03-08 23:10:00,31.2,29.4,30.17,WNW,295,0.0,1.0,93,0.00,,---,0.01,VWS V13.00,2013-03-09 07:10:00,
2013-03-08 23:15:00,31.1,29.3,30.17,WNW,296,0.0,1.0,93,0.00,,---,0.01,VWS V13.00,2013-03-09 07:15:00,
2013-03-08 23:20:00,31.1,29.3,30.17,WNW,296,0.0,1.0,93,0.00,,---,0.01,VWS V13.00,2013-03-09 07:20:00,
2013-03-08 23:25:00,31.0,29.2,30.17,WNW,296,1.0,1.0,93,0.00,,---,0.01,VWS V13.00,2013-03-09 07:25:00,
2013-03-08 23:30:00,31.0,29.2,30.17,WNW,296,1.0,2.0,93,0.00,,---,0.01,VWS V13.00,2013-03-09 07:30:00,
2013-03-08 23:35:00,30.9,29.1,30.17,WNW,295,2.0,2.0,93,0.00,,---,0.01,VWS V13.00,2013-03-09 07:35:00,
2013-03-08 23:40:00,30.8,29.0,30.17,WNW,296,0.0,2.0,93,0.00,,---,0.01,VWS V13.00,2013-03-09 07:40:00,
2013-03-08 23:45:00,30.8,29.0,30.17,WNW,295,0.0,2.0,93,0.00,,---,0.01,VWS V13.00,2013-03-09 07:45:00,
2013-03-08 23:50:00,30.8,29.0,30.17,WNW,296,0.0,2.0,93,0.00,,---,0.01,VWS V13.00,2013-03-09 07:50:00,
2013-03-08 23:55:00,30.8,29.0,30.18,WNW,296,0.0,2.0,93,0.00,,---,0.01,VWS V13.00,2013-03-09 07:55:00,